createdAt,value
2024-02-05T00:00:14.499Z,18.7
2024-02-05T00:01:14.063Z,16.6
2024-02-05T00:02:13.996Z,56.6
2024-02-05T00:03:14.043Z,19.2
2024-02-05T00:04:14.165Z,13.7
2024-02-05T00:05:14.248Z,7.3
2024-02-05T00:06:14.008Z,17.2
2024-02-05T00:07:14.040Z,15.7
2024-02-05T00:08:14.115Z,25.6
2024-02-05T00:09:14.055Z,20.3
2024-02-05T00:10:14.057Z,21.7
2024-02-05T00:11:14.018Z,23.1
2024-02-05T00:12:14.017Z,16.8
2024-02-05T00:13:14.062Z,13.5
2024-02-05T00:14:13.989Z,10.7
2024-02-05T00:15:14.005Z,10.2
2024-02-05T00:16:14.019Z,13.5
2024-02-05T00:17:13.958Z,10.3
2024-02-05T00:18:14.012Z,6.8
2024-02-05T00:19:14.157Z,14.1
2024-02-05T00:20:14.056Z,12.6
2024-02-05T00:21:14.793Z,10.6
2024-02-05T00:22:14.117Z,18.4
2024-02-05T00:23:13.945Z,24.5
2024-02-05T00:24:13.992Z,13.3
2024-02-05T00:25:14.049Z,13.1
2024-02-05T00:26:14.003Z,16.3
2024-02-05T00:27:14.019Z,9.9
2024-02-05T00:28:13.989Z,7.7
2024-02-05T00:29:13.989Z,6.6
2024-02-05T00:30:13.930Z,9.4
2024-02-05T00:31:14.070Z,7.0
2024-02-05T00:32:14.024Z,6.7
2024-02-05T00:33:14.035Z,6.2
2024-02-05T00:34:14.081Z,5.8
2024-02-05T00:35:14.008Z,8.3
2024-02-05T00:36:13.941Z,8.5
2024-02-05T00:37:14.143Z,17.6
2024-02-05T00:38:13.964Z,20.2
2024-02-05T00:39:13.977Z,11.0
2024-02-05T00:40:13.953Z,10.7
2024-02-05T00:41:13.928Z,15.6
2024-02-05T00:42:14.388Z,12.4
2024-02-05T00:43:13.948Z,10.4
2024-02-05T00:44:13.958Z,12.3
2024-02-05T00:45:14.121Z,10.1
2024-02-05T00:46:14.137Z,7.1
2024-02-05T00:47:13.911Z,8.4
2024-02-05T00:48:13.964Z,6.8
2024-02-05T00:49:13.990Z,8.4
2024-02-05T00:50:13.987Z,9.7
2024-02-05T00:51:13.946Z,8.2
2024-02-05T00:52:14.013Z,7.6
2024-02-05T00:53:14.361Z,8.5
2024-02-05T00:54:14.278Z,7.9
2024-02-05T00:55:14.150Z,7.0
2024-02-05T00:56:13.936Z,10.7
2024-02-05T00:57:13.900Z,11.1
2024-02-05T00:58:14.119Z,6.8
2024-02-05T00:59:13.890Z,13.6
2024-02-05T01:00:13.949Z,5.5
2024-02-05T01:01:14.062Z,8.4
2024-02-05T01:02:13.929Z,9.0
2024-02-05T01:03:13.942Z,7.6
2024-02-05T01:04:14.141Z,6.2
2024-02-05T01:05:14.384Z,15.2
2024-02-05T01:06:14.238Z,14.8
2024-02-05T01:07:14.031Z,9.5
2024-02-05T01:08:13.894Z,13.7
2024-02-05T01:09:13.952Z,8.7
2024-02-05T01:10:14.078Z,5.7
2024-02-05T01:11:13.970Z,5.3
2024-02-05T01:12:13.986Z,5.8
2024-02-05T01:13:14.050Z,8.1
2024-02-05T01:14:13.878Z,5.5
2024-02-05T01:15:14.280Z,7.8
2024-02-05T01:16:14.069Z,5.4
2024-02-05T01:17:13.906Z,4.1
2024-02-05T01:18:14.033Z,4.3
2024-02-05T01:19:13.945Z,6.1
2024-02-05T01:20:13.883Z,5.0
2024-02-05T01:21:13.920Z,6.4
2024-02-05T01:22:13.976Z,5.1
2024-02-05T01:23:13.965Z,3.9
2024-02-05T01:24:13.884Z,3.4
2024-02-05T01:25:13.981Z,4.8
2024-02-05T01:26:14.087Z,4.6
2024-02-05T01:27:13.853Z,4.1
2024-02-05T01:28:13.908Z,4.1
2024-02-05T01:29:13.891Z,7.0
2024-02-05T01:30:13.919Z,3.2
2024-02-05T01:31:14.033Z,14.3
2024-02-05T01:32:13.844Z,5.1
2024-02-05T01:33:14.067Z,7.5
2024-02-05T01:34:14.113Z,11.3
2024-02-05T01:35:14.204Z,15.8
2024-02-05T01:36:13.985Z,10.2
2024-02-05T01:37:13.932Z,9.1
2024-02-05T01:38:14.118Z,6.5
2024-02-05T01:39:13.865Z,14.3
2024-02-05T01:40:14.009Z,17.2
2024-02-05T01:41:13.940Z,16.9
2024-02-05T01:42:13.852Z,20.1
2024-02-05T01:43:13.995Z,22.4
2024-02-05T01:44:13.969Z,7.5
2024-02-05T01:45:13.995Z,8.1
2024-02-05T01:46:13.941Z,12.8
2024-02-05T01:47:13.838Z,9.1
2024-02-05T01:48:13.912Z,11.9
2024-02-05T01:49:14.361Z,7.6
2024-02-05T01:50:14.185Z,3.9
2024-02-05T01:51:13.969Z,11.2
2024-02-05T01:52:13.917Z,5.1
2024-02-05T01:53:13.844Z,4.1
2024-02-05T01:54:13.908Z,8.9
2024-02-05T01:55:14.175Z,13.4
2024-02-05T01:56:13.906Z,6.9
2024-02-05T01:57:13.975Z,9.2
2024-02-05T01:58:13.939Z,6.3
2024-02-05T01:59:13.831Z,7.5
2024-02-05T02:00:13.874Z,6.2
2024-02-05T02:01:13.989Z,7.4
2024-02-05T02:02:13.934Z,6.8
2024-02-05T02:03:13.850Z,10.9
2024-02-05T02:04:14.068Z,15.8
2024-02-05T02:05:14.182Z,14.6
2024-02-05T02:06:14.052Z,20.9
2024-02-05T02:07:13.907Z,12.5
2024-02-05T02:08:13.846Z,19.0
2024-02-05T02:09:14.016Z,9.0
2024-02-05T02:10:13.834Z,8.7
2024-02-05T02:11:13.811Z,17.9
2024-02-05T02:12:13.887Z,12.1
2024-02-05T02:13:15.492Z,13.3
2024-02-05T02:14:13.859Z,20.6
2024-02-05T02:15:13.913Z,15.5
2024-02-05T02:16:13.851Z,9.3
2024-02-05T02:17:13.797Z,6.1
2024-02-05T02:18:13.807Z,4.8
2024-02-05T02:19:13.936Z,5.4
2024-02-05T02:20:13.966Z,5.4
2024-02-05T02:21:14.005Z,7.5
2024-02-05T02:22:13.939Z,6.9
2024-02-05T02:23:13.807Z,8.9
2024-02-05T02:24:13.808Z,10.4
2024-02-05T02:25:13.838Z,13.4
2024-02-05T02:26:13.769Z,9.2
2024-02-05T02:27:13.766Z,9.4
2024-02-05T02:28:13.820Z,11.8
2024-02-05T02:29:13.761Z,12.7
2024-02-05T02:30:13.741Z,14.1
2024-02-05T02:31:13.902Z,9.3
2024-02-05T02:32:13.738Z,11.5
2024-02-05T02:33:13.882Z,15.4
2024-02-05T02:34:13.936Z,34.4
2024-02-05T02:35:13.761Z,19.3
2024-02-05T02:36:13.747Z,43.6
2024-02-05T02:37:13.808Z,37.0
2024-02-05T02:38:13.759Z,30.0
2024-02-05T02:39:13.813Z,23.2
2024-02-05T02:40:13.860Z,23.9
2024-02-05T02:41:13.756Z,9.9
2024-02-05T02:42:13.724Z,22.2
2024-02-05T02:43:13.961Z,16.8
2024-02-05T02:44:13.779Z,20.2
2024-02-05T02:45:13.724Z,7.1
2024-02-05T02:46:13.911Z,11.7
2024-02-05T02:47:13.735Z,7.5
2024-02-05T02:48:13.862Z,11.8
2024-02-05T02:49:13.811Z,8.7
2024-02-05T02:50:13.726Z,4.3
2024-02-05T02:51:13.735Z,3.3
2024-02-05T02:52:13.782Z,3.7
2024-02-05T02:53:13.713Z,3.7
2024-02-05T02:54:13.868Z,2.5
2024-02-05T02:55:13.827Z,4.7
2024-02-05T02:56:13.717Z,1.9
2024-02-05T02:57:13.717Z,2.0
2024-02-05T02:58:13.769Z,3.5
2024-02-05T02:59:13.733Z,2.9
2024-02-05T03:00:13.718Z,5.2
2024-02-05T03:01:13.734Z,5.1
2024-02-05T03:02:13.720Z,4.7
2024-02-05T03:03:13.776Z,4.8
2024-02-05T03:04:14.042Z,5.4
2024-02-05T03:05:13.785Z,6.4
2024-02-05T03:06:13.723Z,7.8
2024-02-05T03:07:13.742Z,8.3
2024-02-05T03:08:13.714Z,8.6
2024-02-05T03:09:13.687Z,7.2
2024-02-05T03:10:13.753Z,9.5
2024-02-05T03:11:13.693Z,24.0
2024-02-05T03:12:13.711Z,16.6
2024-02-05T03:19:24.897Z,12.8
2024-02-05T03:20:25.626Z,89.8
2024-02-05T03:21:24.842Z,310.5
2024-02-05T03:22:25.322Z,65.8
2024-02-05T03:23:25.764Z,31.4
2024-02-05T03:24:25.677Z,107.2
2024-02-05T03:25:25.608Z,365.2
2024-02-05T03:26:25.595Z,239.2
2024-02-05T03:27:24.909Z,115.2
2024-02-05T03:28:24.886Z,50.4
2024-02-05T03:29:24.924Z,20.8
2024-02-05T03:30:24.800Z,16.7
2024-02-05T03:31:24.968Z,27.4
2024-02-05T03:32:24.785Z,47.2
2024-02-05T03:33:24.761Z,23.6
2024-02-05T03:34:24.839Z,7.5
2024-02-05T03:35:24.920Z,13.8
2024-02-05T03:36:24.753Z,11.8
2024-02-05T03:37:25.604Z,14.6
2024-02-05T03:38:25.281Z,9.9
2024-02-05T03:39:24.794Z,7.0
2024-02-05T03:40:24.850Z,6.7
2024-02-05T03:41:24.766Z,7.4
2024-02-05T03:42:24.841Z,8.2
2024-02-05T03:43:24.858Z,8.0
2024-02-05T03:44:24.770Z,7.3
2024-02-05T03:45:24.813Z,10.9
2024-02-05T03:46:24.861Z,7.8
2024-02-05T03:47:26.236Z,10.5
2024-02-05T03:48:24.863Z,9.0
2024-02-05T03:49:24.784Z,11.6
2024-02-05T03:50:24.787Z,8.3
2024-02-05T03:51:24.761Z,9.8
2024-02-05T03:52:24.799Z,7.0
2024-02-05T03:53:24.801Z,8.2
2024-02-05T03:54:24.725Z,11.5
2024-02-05T03:55:24.786Z,9.9
2024-02-05T03:56:24.772Z,14.2
2024-02-05T03:57:24.773Z,10.3
2024-02-05T03:58:24.842Z,7.3
2024-02-05T03:59:24.862Z,7.5
2024-02-05T04:00:24.769Z,8.5
2024-02-05T04:01:24.823Z,7.7
2024-02-05T04:02:24.775Z,6.6
2024-02-05T04:03:25.129Z,6.9
2024-02-05T04:04:24.766Z,7.2
2024-02-05T04:05:24.698Z,9.2
2024-02-05T04:06:24.790Z,6.9
2024-02-05T04:07:24.873Z,7.3
2024-02-05T04:08:24.766Z,7.0
2024-02-05T04:09:24.795Z,7.6
2024-02-05T04:10:25.087Z,8.3
2024-02-05T04:11:24.736Z,20.6
2024-02-05T04:12:24.733Z,15.6
2024-02-05T04:13:25.152Z,14.6
2024-02-05T04:14:24.719Z,18.6
2024-02-05T04:15:24.774Z,34.2
2024-02-05T04:16:24.852Z,26.9
2024-02-05T04:17:25.267Z,46.8
2024-02-05T04:18:24.852Z,52.4
2024-02-05T04:19:24.788Z,55.3
2024-02-05T04:20:24.833Z,90.4
2024-02-05T04:21:25.682Z,86.1
2024-02-05T04:22:24.794Z,108.3
2024-02-05T04:23:24.783Z,59.9
2024-02-05T04:24:25.514Z,91.9
2024-02-05T04:25:25.630Z,143.3
2024-02-05T04:26:24.698Z,149.1
2024-02-05T04:27:25.211Z,83.1
2024-02-05T04:28:24.825Z,65.9
2024-02-05T04:29:25.531Z,98.5
2024-02-05T04:30:24.685Z,175.4
2024-02-05T04:31:25.676Z,90.4
2024-02-05T04:32:24.869Z,100.3
2024-02-05T04:33:24.820Z,56.1
2024-02-05T04:34:24.705Z,85.9
2024-02-05T04:35:24.684Z,85.9
2024-02-05T04:36:24.675Z,57.2
2024-02-05T04:37:24.709Z,40.0
2024-02-05T04:38:24.728Z,37.2
2024-02-05T04:39:24.676Z,26.0
2024-02-05T04:40:24.739Z,24.2
2024-02-05T04:41:24.668Z,14.2
2024-02-05T04:42:24.818Z,20.3
2024-02-05T04:43:24.676Z,38.8
2024-02-05T04:44:24.705Z,40.7
2024-02-05T04:45:24.686Z,20.3
2024-02-05T04:46:25.232Z,17.6
2024-02-05T04:47:24.697Z,16.8
2024-02-05T04:48:24.682Z,19.2
2024-02-05T04:49:24.861Z,15.7
2024-02-05T04:50:24.685Z,22.0
2024-02-05T04:51:24.656Z,16.2
2024-02-05T04:52:24.670Z,24.5
2024-02-05T04:53:24.864Z,15.8
2024-02-05T04:54:24.794Z,13.2
2024-02-05T04:55:24.737Z,9.5
2024-02-05T04:56:24.694Z,13.5
2024-02-05T04:57:24.663Z,13.1
2024-02-05T04:58:24.734Z,10.4
2024-02-05T04:59:24.635Z,15.0
2024-02-05T05:00:24.625Z,32.8
2024-02-05T05:01:24.817Z,18.8
2024-02-05T05:02:24.652Z,48.9
2024-02-05T05:03:24.695Z,43.4
2024-02-05T05:04:24.690Z,19.5
2024-02-05T05:05:24.807Z,15.5
2024-02-05T05:06:24.730Z,30.0
2024-02-05T05:07:24.870Z,25.0
2024-02-05T05:08:24.644Z,16.7
2024-02-05T05:09:24.625Z,15.2
2024-02-05T05:10:24.676Z,14.0
2024-02-05T05:11:24.669Z,11.0
2024-02-05T05:12:24.691Z,16.3
2024-02-05T05:13:24.668Z,13.1
2024-02-05T05:14:24.638Z,22.6
2024-02-05T05:15:24.643Z,11.4
2024-02-05T05:16:24.838Z,12.0
2024-02-05T05:17:24.717Z,8.5
2024-02-05T05:18:24.801Z,11.2
2024-02-05T05:19:24.673Z,8.5
2024-02-05T05:20:24.637Z,7.3
2024-02-05T05:21:28.076Z,13.0
2024-02-05T05:22:24.651Z,8.5
2024-02-05T05:23:24.673Z,7.1
2024-02-05T05:24:24.613Z,6.8
2024-02-05T05:25:24.626Z,9.5
2024-02-05T05:26:24.831Z,5.8
2024-02-05T05:27:24.605Z,11.5
2024-02-05T05:28:24.736Z,8.4
2024-02-05T05:29:24.601Z,6.0
2024-02-05T05:30:24.573Z,7.5
2024-02-05T05:31:24.652Z,9.6
2024-02-05T05:32:24.639Z,6.4
2024-02-05T05:33:24.630Z,9.7
2024-02-05T05:34:24.761Z,8.5
2024-02-05T05:35:24.620Z,9.3
2024-02-05T05:36:24.652Z,8.4
2024-02-05T05:37:24.953Z,10.2
2024-02-05T05:38:24.620Z,7.5
2024-02-05T05:39:24.616Z,7.3
2024-02-05T05:40:24.739Z,9.5
2024-02-05T05:41:24.680Z,26.1
2024-02-05T05:42:24.592Z,9.2
2024-02-05T05:43:24.649Z,5.7
2024-02-05T05:44:24.585Z,9.0
2024-02-05T05:45:24.593Z,13.4
2024-02-05T05:46:24.663Z,9.5
2024-02-05T05:47:24.569Z,10.8
2024-02-05T05:48:24.585Z,12.5
2024-02-05T05:49:24.636Z,13.1
2024-02-05T05:50:24.682Z,10.7
2024-02-05T05:51:24.641Z,9.6
2024-02-05T05:52:24.634Z,7.9
2024-02-05T05:53:24.603Z,5.5
2024-02-05T05:54:24.568Z,8.5
2024-02-05T05:55:24.628Z,9.7
2024-02-05T05:56:24.648Z,11.9
2024-02-05T05:57:24.534Z,11.6
2024-02-05T05:58:24.655Z,12.0
2024-02-05T05:59:24.641Z,7.1
2024-02-05T06:00:24.556Z,6.3
2024-02-05T06:01:25.362Z,11.7
2024-02-05T06:02:24.656Z,6.7
2024-02-05T06:03:24.550Z,6.8
2024-02-05T06:04:24.592Z,6.1
2024-02-05T06:05:24.664Z,4.6
2024-02-05T06:06:24.597Z,6.8
2024-02-05T06:07:24.642Z,5.5
2024-02-05T06:08:24.607Z,11.5
2024-02-05T06:09:25.740Z,6.8
2024-02-05T06:10:25.353Z,6.5
2024-02-05T06:11:25.272Z,9.0
2024-02-05T06:12:24.984Z,12.8
2024-02-05T06:13:24.642Z,7.4
2024-02-05T06:14:24.730Z,7.7
2024-02-05T06:15:24.536Z,8.3
2024-02-05T06:16:24.583Z,6.2
2024-02-05T06:17:24.599Z,5.0
2024-02-05T06:18:24.755Z,10.0
2024-02-05T06:19:24.799Z,9.0
2024-02-05T06:20:24.649Z,5.9
2024-02-05T06:21:24.610Z,8.2
2024-02-05T06:22:24.847Z,8.2
2024-02-05T06:23:24.707Z,6.8
2024-02-05T06:24:24.571Z,6.9
2024-02-05T06:25:24.653Z,5.3
2024-02-05T06:26:24.631Z,7.2
2024-02-05T06:27:24.619Z,5.1
2024-02-05T06:28:24.558Z,5.5
2024-02-05T06:29:24.563Z,6.7
2024-02-05T06:30:24.529Z,8.5
2024-02-05T06:31:24.635Z,6.4
2024-02-05T06:32:24.681Z,5.1
2024-02-05T06:33:24.577Z,5.5
2024-02-05T06:34:24.725Z,8.7
2024-02-05T06:35:24.658Z,11.2
2024-02-05T06:36:24.507Z,6.2
2024-02-05T06:37:24.622Z,8.5
2024-02-05T06:38:24.511Z,4.8
2024-02-05T06:39:24.556Z,10.7
2024-02-05T06:40:24.628Z,6.8
2024-02-05T06:41:24.511Z,8.2
2024-02-05T06:42:24.554Z,7.2
2024-02-05T06:43:24.810Z,8.1
2024-02-05T06:44:24.510Z,10.8
2024-02-05T06:45:24.505Z,13.3
2024-02-05T06:46:24.520Z,9.3
2024-02-05T06:47:24.522Z,6.9
2024-02-05T06:48:24.575Z,5.7
2024-02-05T06:49:24.592Z,4.9
2024-02-05T06:50:24.525Z,6.0
2024-02-05T06:51:24.501Z,7.4
2024-02-05T06:52:24.594Z,5.0
2024-02-05T06:53:24.485Z,3.6
2024-02-05T06:54:24.647Z,5.5
2024-02-05T06:55:24.600Z,6.9
2024-02-05T06:56:24.474Z,5.9
2024-02-05T06:57:24.508Z,11.2
2024-02-05T06:58:24.605Z,10.7
2024-02-05T06:59:24.477Z,7.2
2024-02-05T07:00:24.485Z,16.7
2024-02-05T07:01:24.585Z,21.9
2024-02-05T07:02:24.498Z,13.5
2024-02-05T07:03:24.477Z,11.1
2024-02-05T07:04:24.649Z,18.0
2024-02-05T07:05:24.762Z,16.2
2024-02-05T07:06:24.490Z,9.6
2024-02-05T07:07:28.712Z,8.8
2024-02-05T07:08:24.493Z,7.3
2024-02-05T07:09:24.459Z,9.5
2024-02-05T07:10:24.666Z,6.6
2024-02-05T07:11:24.622Z,7.7
2024-02-05T07:12:24.490Z,10.5
2024-02-05T07:13:24.552Z,9.7
2024-02-05T07:14:24.414Z,8.5
2024-02-05T07:15:24.457Z,7.3
2024-02-05T07:16:24.749Z,10.1
2024-02-05T07:17:24.473Z,7.9
2024-02-05T07:18:24.634Z,15.2
2024-02-05T07:19:27.787Z,16.3
2024-02-05T07:20:24.434Z,10.5
2024-02-05T07:21:24.441Z,7.9
2024-02-05T07:22:24.483Z,16.5
2024-02-05T07:23:24.467Z,17.8
2024-02-05T07:24:24.474Z,28.6
2024-02-05T07:25:24.469Z,40.8
2024-02-05T07:26:24.547Z,30.6
2024-02-05T07:27:24.525Z,23.7
2024-02-05T07:28:24.503Z,20.1
2024-02-05T07:29:24.439Z,15.5
2024-02-05T07:30:24.443Z,13.1
2024-02-05T07:31:24.599Z,14.1
2024-02-05T07:32:24.404Z,17.1
2024-02-05T07:33:24.495Z,16.0
2024-02-05T07:34:24.476Z,12.3
2024-02-05T07:35:24.473Z,18.1
2024-02-05T07:36:24.401Z,10.6
2024-02-05T07:37:24.787Z,8.7
2024-02-05T07:38:24.479Z,7.2
2024-02-05T07:39:24.448Z,9.7
2024-02-05T07:40:24.562Z,10.0
2024-02-05T07:41:24.377Z,10.3
2024-02-05T07:42:24.403Z,9.1
2024-02-05T07:43:24.566Z,7.0
2024-02-05T07:44:24.448Z,6.6
2024-02-05T07:45:24.403Z,5.3
2024-02-05T07:46:24.607Z,5.6
2024-02-05T07:47:24.395Z,6.0
2024-02-05T07:48:24.671Z,13.2
2024-02-05T07:49:24.419Z,10.9
2024-02-05T07:50:24.438Z,4.5
2024-02-05T07:51:24.411Z,5.2
2024-02-05T07:52:24.618Z,5.1
2024-02-05T07:53:24.632Z,5.4
2024-02-05T07:54:24.387Z,5.6
2024-02-05T07:55:24.558Z,5.3
2024-02-05T07:56:24.390Z,13.2
2024-02-05T07:57:24.400Z,8.5
2024-02-05T07:58:24.675Z,4.1
2024-02-05T07:59:24.540Z,8.7
2024-02-05T08:00:24.435Z,5.8
2024-02-05T08:01:24.553Z,2.7
2024-02-05T08:02:24.405Z,8.0
2024-02-05T08:03:24.493Z,10.0
2024-02-05T08:04:24.543Z,5.6
2024-02-05T08:05:24.728Z,5.2
2024-02-05T08:06:24.468Z,2.6
2024-02-05T08:07:24.559Z,10.8
2024-02-05T08:08:24.415Z,6.4
2024-02-05T08:09:24.360Z,4.9
2024-02-05T08:10:24.546Z,4.2
2024-02-05T08:11:24.423Z,8.6
2024-02-05T08:12:24.540Z,5.6
2024-02-05T08:13:24.808Z,3.3
2024-02-05T08:14:25.345Z,3.2
2024-02-05T08:15:24.471Z,7.2
2024-02-05T08:16:24.675Z,5.6
2024-02-05T08:17:24.968Z,3.7
2024-02-05T08:18:24.773Z,4.9
2024-02-05T08:19:24.475Z,7.3
2024-02-05T08:20:24.324Z,4.9
2024-02-05T08:21:24.307Z,4.7
2024-02-05T08:22:24.487Z,4.8
2024-02-05T08:23:24.522Z,6.7
2024-02-05T08:24:24.474Z,9.0
2024-02-05T08:25:24.735Z,7.5
2024-02-05T08:26:24.493Z,10.0
2024-02-05T08:27:24.371Z,5.6
2024-02-05T08:28:24.550Z,4.8
2024-02-05T08:29:24.569Z,7.5
2024-02-05T08:30:24.549Z,7.4
2024-02-05T08:31:24.405Z,5.8
2024-02-05T08:32:24.636Z,5.1
2024-02-05T08:33:24.426Z,4.6
2024-02-05T08:34:24.378Z,9.4
2024-02-05T08:35:24.315Z,5.9
2024-02-05T08:36:24.342Z,5.1
2024-02-05T08:37:24.420Z,3.1
2024-02-05T08:38:24.401Z,3.6
2024-02-05T08:39:24.321Z,6.8
2024-02-05T08:40:24.478Z,21.9
2024-02-05T08:41:24.350Z,14.9
2024-02-05T08:42:31.849Z,23.5
2024-02-05T08:43:24.707Z,27.9
2024-02-05T08:44:24.295Z,25.8
2024-02-05T08:45:24.289Z,19.0
2024-02-05T08:46:24.381Z,21.8
2024-02-05T08:47:24.396Z,31.5
2024-02-05T08:48:24.716Z,22.9
2024-02-05T08:49:24.360Z,31.5
2024-02-05T08:50:24.381Z,18.2
2024-02-05T08:51:24.285Z,17.2
2024-02-05T08:52:24.419Z,17.0
2024-02-05T08:53:24.391Z,17.1
2024-02-05T08:54:24.422Z,10.1
2024-02-05T08:55:24.477Z,7.8
2024-02-05T08:56:24.304Z,5.5
2024-02-05T08:57:24.281Z,3.0
2024-02-05T08:58:24.414Z,4.5
2024-02-05T08:59:24.304Z,4.7
2024-02-05T09:00:24.393Z,5.7
2024-02-05T09:01:24.494Z,6.1
2024-02-05T09:02:24.603Z,3.6
2024-02-05T09:03:24.299Z,2.9
2024-02-05T09:04:24.406Z,5.4
2024-02-05T09:05:33.501Z,5.8
2024-02-05T09:06:24.299Z,6.2
2024-02-05T09:07:24.394Z,11.1
2024-02-05T09:08:24.337Z,10.3
2024-02-05T09:09:24.268Z,8.2
2024-02-05T09:10:24.533Z,16.4
2024-02-05T09:11:24.285Z,9.9
2024-02-05T09:12:24.330Z,10.6
2024-02-05T09:13:24.371Z,6.5
2024-02-05T09:14:24.383Z,31.3
2024-02-05T09:15:24.240Z,17.8
2024-02-05T09:16:24.543Z,18.2
2024-02-05T09:17:24.324Z,31.6
2024-02-05T09:18:24.321Z,28.0
2024-02-05T09:19:24.341Z,28.5
2024-02-05T09:20:24.295Z,28.2
2024-02-05T09:21:24.271Z,21.1
2024-02-05T09:22:24.411Z,17.1
2024-02-05T09:23:24.292Z,15.9
2024-02-05T09:24:24.415Z,17.2
2024-02-05T09:25:24.360Z,18.0
2024-02-05T09:26:24.272Z,11.6
2024-02-05T09:27:24.483Z,11.0
2024-02-05T09:28:24.341Z,10.4
2024-02-05T09:29:24.225Z,9.4
2024-02-05T09:30:24.290Z,6.3
2024-02-05T09:31:24.326Z,5.0
2024-02-05T09:32:24.339Z,8.0
2024-02-05T09:33:24.302Z,4.7
2024-02-05T09:34:24.360Z,4.9
2024-02-05T09:35:24.392Z,3.7
2024-02-05T09:36:24.270Z,8.9
2024-02-05T09:37:24.295Z,5.4
2024-02-05T09:38:24.351Z,4.0
2024-02-05T09:39:24.252Z,5.1
2024-02-05T09:40:24.350Z,8.6
2024-02-05T09:41:24.237Z,19.0
2024-02-05T09:42:24.205Z,25.7
2024-02-05T09:43:24.338Z,36.2
2024-02-05T09:44:24.248Z,26.3
2024-02-05T09:45:24.290Z,47.1
2024-02-05T09:46:24.367Z,27.1
2024-02-05T09:47:24.297Z,24.0
2024-02-05T09:48:30.628Z,20.4
2024-02-05T09:49:24.755Z,34.9
2024-02-05T09:50:24.250Z,29.7
2024-02-05T09:51:24.245Z,28.3
2024-02-05T09:52:24.268Z,34.2
2024-02-05T09:53:24.239Z,33.3
2024-02-05T09:54:24.333Z,31.4
2024-02-05T09:55:24.301Z,26.6
2024-02-05T09:56:24.224Z,19.3
2024-02-05T09:57:24.190Z,16.5
2024-02-05T09:58:24.241Z,16.5
2024-02-05T09:59:24.173Z,14.2
2024-02-05T10:00:24.757Z,17.1
2024-02-05T10:01:24.425Z,17.4
2024-02-05T10:02:24.257Z,23.1
2024-02-05T10:03:24.329Z,19.0
2024-02-05T10:04:24.321Z,21.3
2024-02-05T10:05:24.228Z,45.0
2024-02-05T10:06:24.337Z,38.8
2024-02-05T10:07:24.424Z,40.6
2024-02-05T10:08:24.281Z,27.8
2024-02-05T10:09:24.893Z,27.8
2024-02-05T10:10:24.491Z,20.4
2024-02-05T10:11:24.225Z,18.8
2024-02-05T10:12:24.203Z,12.7
2024-02-05T10:13:24.227Z,9.6
2024-02-05T10:14:26.666Z,7.1
2024-02-05T10:15:24.263Z,8.3
2024-02-05T10:16:24.368Z,6.7
2024-02-05T10:17:25.878Z,6.1
2024-02-05T10:18:24.429Z,6.6
2024-02-05T10:19:24.223Z,8.6
2024-02-05T10:20:24.169Z,13.4
2024-02-05T10:21:24.200Z,13.9
2024-02-05T10:22:24.486Z,14.3
2024-02-05T10:23:27.468Z,10.1
2024-02-05T10:24:24.109Z,6.7
2024-02-05T10:25:24.207Z,6.6
2024-02-05T10:26:24.242Z,5.9
2024-02-05T10:27:24.163Z,5.8
2024-02-05T10:28:24.409Z,6.0
2024-02-05T10:29:24.275Z,7.3
2024-02-05T10:30:24.114Z,7.1
2024-02-05T10:31:24.553Z,8.4
2024-02-05T10:32:24.372Z,5.5
2024-02-05T10:33:24.446Z,6.1
2024-02-05T10:34:24.507Z,11.9
2024-02-05T10:35:24.191Z,16.2
2024-02-05T10:36:24.321Z,11.6
2024-02-05T10:37:24.443Z,11.7
2024-02-05T10:38:24.209Z,11.0
2024-02-05T10:39:24.579Z,9.7
2024-02-05T10:40:24.277Z,13.3
2024-02-05T10:41:24.472Z,14.1
2024-02-05T10:42:24.164Z,8.9
2024-02-05T10:43:24.168Z,8.8
2024-02-05T10:44:34.198Z,7.8
2024-02-05T10:45:24.219Z,5.2
2024-02-05T10:46:24.467Z,6.4
2024-02-05T10:47:24.154Z,5.0
2024-02-05T10:48:24.233Z,3.2
2024-02-05T10:49:24.254Z,6.8
2024-02-05T10:50:24.127Z,6.1
2024-02-05T10:51:24.074Z,4.5
2024-02-05T10:52:24.225Z,3.9
2024-02-05T10:53:24.163Z,4.9
2024-02-05T10:54:24.166Z,4.7
2024-02-05T10:55:24.479Z,4.4
2024-02-05T10:56:24.150Z,3.9
2024-02-05T10:57:24.106Z,5.0
2024-02-05T10:58:24.377Z,6.5
2024-02-05T10:59:24.274Z,7.4
2024-02-05T11:00:24.119Z,5.5
2024-02-05T11:01:24.307Z,9.8
2024-02-05T11:02:24.310Z,7.9
2024-02-05T11:03:24.210Z,8.1
2024-02-05T11:04:24.345Z,13.2
2024-02-05T11:05:24.559Z,10.7
2024-02-05T11:06:24.674Z,10.6
2024-02-05T11:07:24.433Z,7.6
2024-02-05T11:08:24.362Z,6.3
2024-02-05T11:09:24.120Z,7.4
2024-02-05T11:10:24.560Z,8.7
2024-02-05T11:11:24.095Z,8.7
2024-02-05T11:12:24.173Z,6.3
2024-02-05T11:13:24.583Z,6.7
2024-02-05T11:14:24.101Z,6.5
2024-02-05T11:15:24.116Z,4.8
2024-02-05T11:16:24.079Z,4.9
2024-02-05T11:17:24.053Z,4.8
2024-02-05T11:18:24.097Z,4.5
2024-02-05T11:19:24.166Z,4.9
2024-02-05T11:20:24.176Z,4.9
2024-02-05T11:21:24.164Z,8.0
2024-02-05T11:22:24.334Z,6.8
2024-02-05T11:23:24.079Z,6.9
2024-02-05T11:24:24.051Z,9.5
2024-02-05T11:25:24.231Z,11.7
2024-02-05T11:26:24.052Z,10.6
2024-02-05T11:27:24.043Z,8.4
2024-02-05T11:28:24.297Z,8.9
2024-02-05T11:29:24.061Z,11.9
2024-02-05T11:30:24.149Z,12.7
2024-02-05T11:31:24.318Z,11.8
2024-02-05T11:32:24.029Z,28.8
2024-02-05T11:33:24.037Z,21.3
2024-02-05T11:34:24.380Z,26.4
2024-02-05T11:35:24.252Z,44.5
2024-02-05T11:36:24.061Z,31.1
2024-02-05T11:37:24.275Z,29.3
2024-02-05T11:38:24.120Z,25.9
2024-02-05T11:39:24.384Z,35.6
2024-02-05T11:40:24.680Z,42.3
2024-02-05T11:41:24.107Z,20.5
2024-02-05T11:42:24.034Z,15.7
2024-02-05T11:43:24.325Z,10.7
2024-02-05T11:44:24.073Z,51.0
2024-02-05T11:45:24.134Z,60.5
2024-02-05T11:46:24.246Z,34.7
2024-02-05T11:47:24.064Z,39.0
2024-02-05T11:48:24.515Z,56.6
2024-02-05T11:49:24.173Z,71.0
2024-02-05T11:50:24.161Z,53.3
2024-02-05T11:51:24.024Z,58.2
2024-02-05T11:52:24.075Z,90.2
2024-02-05T11:53:24.100Z,95.4
2024-02-05T11:54:24.022Z,37.3
2024-02-05T11:55:24.344Z,35.7
2024-02-05T11:56:24.146Z,50.7
2024-02-05T11:57:24.035Z,47.3
2024-02-05T11:58:24.051Z,24.0
2024-02-05T11:59:24.027Z,12.6
2024-02-05T12:00:24.065Z,7.6
2024-02-05T12:01:24.226Z,7.0
2024-02-05T12:02:23.988Z,9.1
2024-02-05T12:03:24.159Z,10.1
2024-02-05T12:04:24.134Z,10.9
2024-02-05T12:05:24.119Z,9.6
2024-02-05T12:06:24.051Z,13.3
2024-02-05T12:07:24.160Z,9.0
2024-02-05T12:08:24.077Z,9.3
2024-02-05T12:09:24.130Z,14.0
2024-02-05T12:10:24.140Z,13.1
2024-02-05T12:11:24.000Z,8.8
2024-02-05T12:12:24.055Z,8.4
2024-02-05T12:13:24.222Z,8.7
2024-02-05T12:14:24.039Z,9.6
2024-02-05T12:15:24.035Z,7.3
2024-02-05T12:16:24.135Z,7.1
2024-02-05T12:17:24.009Z,10.1
2024-02-05T12:18:24.061Z,10.4
2024-02-05T12:19:24.431Z,19.3
2024-02-05T12:20:24.203Z,19.8
2024-02-05T12:21:24.163Z,19.8
2024-02-05T12:22:24.218Z,16.9
2024-02-05T12:23:24.050Z,22.2
2024-02-05T12:24:24.044Z,11.3
2024-02-05T12:25:34.205Z,13.6
2024-02-05T12:26:23.987Z,21.4
2024-02-05T12:27:24.053Z,9.3
2024-02-05T12:28:24.059Z,12.9
2024-02-05T12:29:24.100Z,12.2
2024-02-05T12:30:24.076Z,10.8
2024-02-05T12:31:24.104Z,10.3
2024-02-05T12:32:30.243Z,9.2
2024-02-05T12:33:24.084Z,8.0
2024-02-05T12:34:24.149Z,7.3
2024-02-05T12:35:24.040Z,6.9
2024-02-05T12:36:24.177Z,10.7
2024-02-05T12:37:24.193Z,8.2
2024-02-05T12:38:24.612Z,10.3
2024-02-05T12:39:24.001Z,8.8
2024-02-05T12:40:24.038Z,9.2
2024-02-05T12:41:23.978Z,7.6
2024-02-05T12:42:24.044Z,7.5
2024-02-05T12:43:24.071Z,8.9
2024-02-05T12:44:33.289Z,11.0
2024-02-05T12:45:23.947Z,9.2
2024-02-05T12:46:24.262Z,11.9
2024-02-05T12:47:23.978Z,6.4
2024-02-05T12:48:24.162Z,8.4
2024-02-05T12:49:24.343Z,10.6
2024-02-05T12:50:24.004Z,7.6
2024-02-05T12:51:23.944Z,12.7
2024-02-05T12:52:24.232Z,9.0
2024-02-05T12:53:24.034Z,12.2
2024-02-05T12:54:23.914Z,12.9
2024-02-05T12:55:24.085Z,17.2
2024-02-05T12:56:23.946Z,16.9
2024-02-05T12:57:23.952Z,15.8
2024-02-05T12:58:24.283Z,11.3
2024-02-05T12:59:24.193Z,12.2
2024-02-05T13:00:23.992Z,5.8
2024-02-05T13:01:24.053Z,9.0
2024-02-05T13:02:24.150Z,7.3
2024-02-05T13:03:24.091Z,11.1
2024-02-05T13:04:24.089Z,12.2
2024-02-05T13:05:24.188Z,12.8
2024-02-05T13:06:24.112Z,11.1
2024-02-05T13:07:24.281Z,7.4
2024-02-05T13:08:24.102Z,8.1
2024-02-05T13:09:23.919Z,8.7
2024-02-05T13:10:24.072Z,8.8
2024-02-05T13:11:23.963Z,12.7
2024-02-05T13:12:23.964Z,8.9
2024-02-05T13:13:27.451Z,10.2
2024-02-05T13:14:24.025Z,6.5
2024-02-05T13:15:24.101Z,13.2
2024-02-05T13:16:23.987Z,12.4
2024-02-05T13:17:24.015Z,7.4
2024-02-05T13:18:24.013Z,6.2
2024-02-05T13:19:24.000Z,5.6
2024-02-05T13:20:24.084Z,7.6
2024-02-05T13:21:23.955Z,7.8
2024-02-05T13:22:24.071Z,8.9
2024-02-05T13:23:23.996Z,7.3
2024-02-05T13:24:23.958Z,8.6
2024-02-05T13:25:24.208Z,9.4
2024-02-05T13:26:23.907Z,6.4
2024-02-05T13:27:24.030Z,10.1
2024-02-05T13:28:23.947Z,9.6
2024-02-05T13:29:23.955Z,8.7
2024-02-05T13:30:23.943Z,7.3
2024-02-05T13:31:24.042Z,10.5
2024-02-05T13:32:23.980Z,14.6
2024-02-05T13:33:23.886Z,28.6
2024-02-05T13:34:24.020Z,23.7
2024-02-05T13:35:23.877Z,17.7
2024-02-05T13:36:23.891Z,9.9
2024-02-05T13:37:24.082Z,8.0
2024-02-05T13:38:23.882Z,9.9